Time;durP1;ratioP1;P1;durP2;ratioP2;P2;SDS_P1;SDS_P2;PMS_P1;PMS_P2;Temp;Humidity;BMP_temperature;BMP_pressure;BME280_temperature;BME280_humidity;BME280_pressure;Samples;Min_cycle;Max_cycle;Signal;HPM_P1;HPM_P2
2022/05/30 00:01:09;;;;;;;10.27;1.83;;;;;;;21.32;49.26;100615.56;2074177;28;20160;-71
2022/05/30 00:02:34;;;;;;;9.05;1.90;;;;;;;21.32;49.12;100613.75;2083579;28;20056;-70
2022/05/30 00:03:56;;;;;;;8.88;2.28;;;;;;;21.31;48.99;100617.34;2075574;28;20402;-72
2022/05/30 00:05:21;;;;;;;6.15;1.67;;;;;;;21.32;49.02;100621.81;2079632;28;20095;-71
2022/05/30 00:06:43;;;;;;;11.50;2.38;;;;;;;21.32;48.86;100608.38;2084665;28;20116;-71
2022/05/30 00:08:05;;;;;;;12.77;2.20;;;;;;;21.37;48.80;100618.97;2083414;28;20053;-71
2022/05/30 00:09:27;;;;;;;12.15;1.38;;;;;;;21.40;48.57;100621.53;2077743;28;20041;-71
2022/05/30 00:10:50;;;;;;;9.90;2.03;;;;;;;21.42;48.41;100625.06;2075582;28;20053;-71
2022/05/30 00:12:13;;;;;;;7.05;1.92;;;;;;;21.37;48.65;100618.97;2073476;28;20065;-71
2022/05/30 00:13:35;;;;;;;8.10;1.77;;;;;;;21.36;48.37;100617.22;2080735;28;20044;-70
2022/05/30 00:14:57;;;;;;;;;;;;;;;21.30;48.54;100617.41;2076333;28;20061;-71
2022/05/30 00:16:23;;;;;;;8.18;1.63;;;;;;;21.27;48.54;100620.16;2070539;28;19922;-71
2022/05/30 00:17:48;;;;;;;10.25;1.58;;;;;;;21.24;48.70;100620.28;2075598;28;20049;-71
2022/05/30 00:19:10;;;;;;;5.55;1.15;;;;;;;21.23;48.52;100608.66;2090670;28;20052;-71
2022/05/30 00:20:32;;;;;;;3.72;1.60;;;;;;;21.23;48.55;100610.44;2086032;28;20520;-70
2022/05/30 00:21:56;;;;;;;5.18;1.70;;;;;;;21.18;48.95;100613.28;2083823;28;20184;-71
2022/05/30 00:23:19;;;;;;;9.73;1.55;;;;;;;21.14;49.02;100608.00;2077250;28;20080;-71
2022/05/30 00:24:43;;;;;;;6.78;1.45;;;;;;;21.13;49.43;100612.53;2078387;28;20083;-72
2022/05/30 00:26:07;;;;;;;7.85;2.40;;;;;;;21.13;49.48;100609.84;2085551;28;20366;-70
2022/05/30 00:27:30;;;;;;;7.47;1.20;;;;;;;21.12;49.13;100612.56;2077597;28;20041;-71
2022/05/30 00:28:53;;;;;;;10.15;2.13;;;;;;;21.10;49.25;100612.59;2067804;28;20058;-70
2022/05/30 00:30:16;;;;;;;13.13;1.70;;;;;;;21.09;48.95;100613.53;2081702;28;20045;-70
2022/05/30 00:31:39;;;;;;;8.20;1.55;;;;;;;21.06;49.18;100611.81;2077873;28;20057;-70
2022/05/30 00:33:02;;;;;;;9.20;1.48;;;;;;;21.06;49.04;100606.47;2082933;28;20041;-70
2022/05/30 00:34:24;;;;;;;8.07;1.52;;;;;;;21.04;48.78;100608.28;2078073;28;20068;-71
2022/05/30 00:35:47;;;;;;;6.40;1.38;;;;;;;21.06;48.91;100605.56;2084162;28;20048;-70
2022/05/30 00:37:09;;;;;;;9.98;1.83;;;;;;;21.07;48.99;100610.00;2085539;28;20154;-71
2022/05/30 00:38:32;;;;;;;8.70;1.42;;;;;;;21.05;48.88;100614.56;2078537;28;20569;-70
2022/05/30 00:39:54;;;;;;;7.47;1.90;;;;;;;21.02;49.17;100620.88;2089760;28;20056;-71
2022/05/30 00:41:18;;;;;;;8.32;2.78;;;;;;;21.00;49.20;100616.50;2088861;28;20159;-71
2022/05/30 00:42:40;;;;;;;8.88;1.83;;;;;;;20.95;49.47;100618.41;2070323;28;20311;-71
2022/05/30 00:44:03;;;;;;;6.70;1.60;;;;;;;20.93;49.42;100615.78;2081297;28;20127;-70
2022/05/30 00:45:25;;;;;;;10.25;1.73;;;;;;;20.95;49.37;100621.09;2085698;28;20148;-71
2022/05/30 00:46:47;;;;;;;8.75;2.03;;;;;;;20.96;49.48;100617.50;2077188;28;20060;-71
2022/05/30 00:48:10;;;;;;;6.97;1.30;;;;;;;20.97;49.46;100616.56;2083982;28;20081;-70
2022/05/30 00:49:35;;;;;;;13.60;1.80;;;;;;;20.96;49.21;100615.69;2072836;28;20042;-70
2022/05/30 00:51:01;;;;;;;11.38;2.17;;;;;;;20.98;48.99;100619.22;2076229;28;20057;-70
2022/05/30 00:52:29;;;;;;;10.40;2.90;;;;;;;20.99;48.91;100614.72;2075103;28;20037;-70
2022/05/30 00:53:55;;;;;;;9.38;2.17;;;;;;;20.98;48.92;100619.22;2073007;28;20382;-70
2022/05/30 00:55:22;;;;;;;7.03;1.05;;;;;;;20.98;48.59;100615.66;2075085;28;20049;-70
2022/05/30 00:56:48;;;;;;;11.82;1.50;;;;;;;20.96;48.81;100621.06;2077836;28;20489;-70
2022/05/30 00:58:14;;;;;;;6.68;1.80;;;;;;;20.95;49.21;100621.09;2084942;28;20053;-70
2022/05/30 00:59:36;;;;;;;9.52;1.80;;;;;;;20.92;49.10;100622.09;2069461;28;20104;-71
2022/05/30 01:01:00;;;;;;;7.28;1.42;;;;;;;20.86;49.43;100621.38;2083601;28;20139;-71
2022/05/30 01:02:24;;;;;;;9.30;1.90;;;;;;;20.84;49.43;100624.09;2077199;28;20057;-71
2022/05/30 01:07:12;;;;;;;9.73;1.92;;;;;;;20.65;50.40;100618.38;2086171;28;20414;-70
2022/05/30 01:08:33;;;;;;;10.45;1.83;;;;;;;20.59;50.58;100613.19;2077558;28;20045;-71
2022/05/30 01:09:57;;;;;;;9.50;2.10;;;;;;;20.55;50.68;100630.28;2077399;28;20257;-71
2022/05/30 01:11:20;;;;;;;8.68;1.67;;;;;;;20.55;50.93;100630.28;2073470;28;20099;-70
2022/05/30 01:12:44;;;;;;;11.15;2.33;;;;;;;20.56;50.94;100624.00;2067376;28;20741;-71
2022/05/30 01:14:06;;;;;;;7.22;1.60;;;;;;;20.56;50.83;100625.78;2078023;28;20131;-71
2022/05/30 01:15:31;;;;;;;8.63;1.67;;;;;;;20.54;51.17;100625.84;2084105;28;20059;-71
2022/05/30 01:16:53;;;;;;;4.97;1.42;;;;;;;20.52;50.95;100621.44;2077888;28;20038;-71
2022/05/30 01:18:21;;;;;;;7.93;1.55;;;;;;;20.54;51.22;100630.34;2072879;28;20544;-70
2022/05/30 01:19:56;;;;;;;8.75;2.30;;;;;;;20.50;51.31;100634.00;2071503;28;20121;-72
2022/05/30 01:21:43;;;;;;;10.32;1.63;;;;;;;20.44;51.61;100629.69;2077275;28;20700;-71
2022/05/30 01:23:28;;;;;;;8.50;2.25;;;;;;;20.42;51.31;100634.22;2085623;28;20053;-71
2022/05/30 01:25:01;;;;;;;10.38;2.30;;;;;;;20.41;51.31;100635.16;2072499;28;20056;-71
2022/05/30 01:27:20;;;;;;;7.82;1.80;;;;;;;20.40;51.02;100638.75;2080932;28;20079;-71
2022/05/30 01:28:55;;;;;;;6.22;1.52;;;;;;;20.38;51.01;100640.59;2088514;28;20060;-71
2022/05/30 01:30:18;;;;;;;7.97;1.53;;;;;;;20.35;51.16;100635.28;2072370;28;20076;-71
2022/05/30 01:31:39;;;;;;;12.75;1.60;;;;;;;20.32;51.14;100637.16;2075266;28;21130;-72
2022/05/30 01:33:02;;;;;;;8.85;1.77;;;;;;;20.31;51.28;100638.94;2073815;28;20049;-70
2022/05/30 01:34:28;;;;;;;9.43;2.75;;;;;;;20.28;51.52;100641.72;2065407;28;20038;-71
2022/05/30 01:35:50;;;;;;;10.93;3.95;;;;;;;20.25;51.67;100647.16;2065507;28;20054;-71
2022/05/30 01:37:13;;;;;;;3.72;1.20;;;;;;;20.25;51.62;100641.81;2066613;28;20065;-71
2022/05/30 01:38:36;;;;;;;8.02;1.40;;;;;;;20.26;51.52;100647.13;2071859;28;20045;-71
2022/05/30 01:40:00;;;;;;;11.85;1.60;;;;;;;20.27;51.56;100645.34;2075420;28;20045;-71
2022/05/30 01:41:21;;;;;;;10.82;1.60;;;;;;;20.23;51.40;100643.63;2083428;28;20084;-71
2022/05/30 01:42:44;;;;;;;8.10;1.48;;;;;;;20.20;51.65;100649.09;2076933;28;20050;-70
2022/05/30 01:44:09;;;;;;;7.90;1.98;;;;;;;20.20;51.54;100649.09;2078143;28;20352;-71
2022/05/30 01:45:31;;;;;;;2.85;1.48;;;;;;;20.17;51.54;100643.78;2083856;28;20111;-71
2022/05/30 01:46:54;;;;;;;5.20;1.73;;;;;;;20.17;51.56;100643.78;2077765;28;20103;-71
2022/05/30 01:48:16;;;;;;;9.82;1.63;;;;;;;20.17;51.92;100639.31;2071472;28;20117;-71
2022/05/30 01:49:39;;;;;;;5.57;1.88;;;;;;;20.16;51.86;100640.22;2069699;28;20578;-71
2022/05/30 01:51:01;;;;;;;11.48;2.30;;;;;;;20.15;52.06;100643.81;2079440;28;20041;-71
2022/05/30 01:52:25;;;;;;;6.90;1.20;;;;;;;20.14;52.33;100651.94;2073562;28;20539;-71
2022/05/30 01:53:49;;;;;;;8.25;1.63;;;;;;;20.11;52.28;100655.56;2080427;28;20552;-70
2022/05/30 01:55:27;;;;;;;13.52;2.63;;;;;;;20.07;52.31;100653.00;2088183;28;20053;-71
2022/05/30 01:56:57;;;;;;;11.27;1.50;;;;;;;20.05;52.50;100652.16;2076955;28;20133;-70
2022/05/30 01:58:25;;;;;;;6.65;1.42;;;;;;;20.03;52.32;100654.84;2071942;28;20072;-71
2022/05/30 02:00:17;;;;;;;11.70;1.58;;;;;;;20.01;52.22;100651.34;2061584;28;20045;-71
2022/05/30 02:01:44;;;;;;;9.80;1.88;;;;;;;20.00;52.41;100656.75;2085675;28;20145;-71
2022/05/30 02:03:08;;;;;;;7.85;1.50;;;;;;;19.94;52.50;100648.88;2086100;28;20045;-71
2022/05/30 02:04:30;;;;;;;9.18;1.38;;;;;;;19.85;52.81;100653.53;2075911;28;20053;-71
2022/05/30 02:05:52;;;;;;;12.70;2.13;;;;;;;19.83;52.95;100659.81;2082404;28;20139;-71
2022/05/30 02:07:14;;;;;;;6.78;1.45;;;;;;;19.82;53.22;100656.25;2076567;28;20041;-71
2022/05/30 02:08:36;;;;;;;7.00;1.88;;;;;;;19.83;53.25;100658.03;2076737;28;20056;-71
2022/05/30 02:09:59;;;;;;;3.05;1.15;;;;;;;19.82;53.23;100656.25;2068609;28;20048;-70
2022/05/30 02:11:24;;;;;;;8.90;1.60;;;;;;;19.81;53.37;100657.19;2073188;28;20037;-70
2022/05/30 02:12:52;;;;;;;5.72;1.45;;;;;;;19.79;53.46;100651.00;2076318;28;20557;-70
2022/05/30 02:14:24;;;;;;;5.85;1.67;;;;;;;19.76;53.32;100648.38;2077423;28;20654;-70
2022/05/30 02:17:29;;;;;;;7.72;2.10;;;;;;;19.69;53.45;100652.09;2076633;28;20052;-71
2022/05/30 02:18:51;;;;;;;5.88;1.67;;;;;;;19.65;53.71;100654.91;2076271;28;20080;-71
2022/05/30 02:20:14;;;;;;;11.43;2.03;;;;;;;19.64;53.67;100650.47;2075484;28;20043;-71
2022/05/30 02:21:36;;;;;;;9.13;2.25;;;;;;;19.66;53.65;100654.00;2074045;28;20047;-72
2022/05/30 02:22:58;;;;;;;8.57;1.50;;;;;;;19.68;53.51;100653.06;2065123;28;20506;-72
2022/05/30 02:24:21;;;;;;;8.02;1.67;;;;;;;19.70;53.38;100653.88;2072953;28;20564;-71
2022/05/30 02:25:43;;;;;;;10.55;1.33;;;;;;;19.67;53.43;100655.75;2066136;28;20042;-72
2022/05/30 02:27:08;;;;;;;8.38;1.60;;;;;;;19.61;53.47;100654.09;2072611;28;20222;-71
2022/05/30 02:28:30;;;;;;;10.27;1.83;;;;;;;19.59;53.70;100653.25;2069199;28;20095;-72
2022/05/30 02:29:53;;;;;;;10.25;2.50;;;;;;;19.61;53.59;100650.53;2071771;28;20577;-71
2022/05/30 02:31:19;;;;;;;9.43;1.30;;;;;;;19.63;53.79;100657.59;2074601;28;20173;-72
2022/05/30 02:32:42;;;;;;;8.13;1.77;;;;;;;19.63;53.92;100648.69;2074531;28;20541;-72
2022/05/30 02:37:23;;;;;;;8.00;2.33;;;;;;;19.57;53.91;100662.22;2077572;28;20044;-70
2022/05/30 02:38:48;;;;;;;9.23;2.45;;;;;;;19.55;54.09;100659.59;2075531;28;20049;-70
2022/05/30 02:40:48;;;;;;;8.70;2.22;;;;;;;19.49;54.20;100662.44;2079834;28;20076;-71
2022/05/30 02:42:30;;;;;;;7.80;2.13;;;;;;;19.48;54.57;100660.66;2086975;28;20068;-70
2022/05/30 02:43:53;;;;;;;7.90;2.08;;;;;;;19.49;54.64;100662.44;2069378;28;20121;-70
2022/05/30 02:45:17;;;;;;;8.98;1.67;;;;;;;19.49;54.59;100665.97;2075429;28;20056;-70
2022/05/30 02:46:41;;;;;;;6.32;1.75;;;;;;;19.48;54.65;100657.97;2075526;28;20675;-70
2022/05/30 02:48:05;;;;;;;7.35;2.08;;;;;;;19.47;54.72;100657.09;2076018;28;20140;-70
2022/05/30 02:49:29;;;;;;;9.40;1.60;;;;;;;19.47;54.56;100657.09;2074285;28;20052;-70
2022/05/30 02:50:50;;;;;;;12.95;2.35;;;;;;;19.44;54.77;100662.47;2077515;28;20063;-70
2022/05/30 02:52:13;;;;;;;9.05;2.90;;;;;;;19.38;54.99;100659.94;2074768;28;20484;-70
2022/05/30 02:53:35;;;;;;;7.40;1.77;;;;;;;19.35;55.01;100665.38;2066874;28;20073;-70
2022/05/30 02:55:26;;;;;;;9.32;1.83;;;;;;;19.34;55.37;100665.41;2071568;28;20184;-70
2022/05/30 02:56:50;;;;;;;8.43;1.77;;;;;;;19.35;55.33;100659.13;2080475;28;20452;-70
2022/05/30 02:58:12;;;;;;;9.60;1.70;;;;;;;19.36;55.33;100660.91;2077908;28;20056;-70
2022/05/30 02:59:35;;;;;;;7.40;1.52;;;;;;;19.32;55.51;100667.22;2072496;28;20061;-70
2022/05/30 03:01:01;;;;;;;8.68;1.50;;;;;;;19.25;55.58;100665.59;2069783;28;20054;-70
2022/05/30 03:02:25;;;;;;;12.63;2.03;;;;;;;19.23;55.93;100667.44;2073507;28;20073;-70
2022/05/30 03:03:47;;;;;;;7.05;1.70;;;;;;;19.22;56.05;100671.03;2069270;28;20137;-71
2022/05/30 03:05:10;;;;;;;11.52;2.47;;;;;;;19.24;55.94;100669.16;2071171;28;20049;-70
2022/05/30 03:06:32;;;;;;;9.07;2.20;;;;;;;19.27;55.92;100671.78;2073323;28;20079;-70
2022/05/30 03:07:55;;;;;;;10.93;2.33;;;;;;;19.29;55.93;100673.53;2073636;28;20048;-70
2022/05/30 03:09:36;;;;;;;14.32;2.05;;;;;;;19.27;56.11;100679.81;2081194;28;20139;-70
2022/05/30 03:11:22;;;;;;;12.57;1.90;;;;;;;19.20;56.32;100679.06;2079720;28;20494;-69
2022/05/30 03:12:43;;;;;;;10.05;2.08;;;;;;;19.21;56.55;100674.59;2077640;28;20108;-69
2022/05/30 03:14:06;;;;;;;6.75;1.75;;;;;;;19.25;56.54;100678.97;2072447;28;20115;-70
2022/05/30 03:15:27;;;;;;;12.02;1.98;;;;;;;19.27;56.40;100685.19;2073467;28;20168;-70
2022/05/30 03:16:50;;;;;;;9.70;3.05;;;;;;;19.25;56.66;100678.97;2072714;28;20494;-70
2022/05/30 03:18:14;;;;;;;12.88;4.05;;;;;;;19.26;56.55;100684.28;2082114;28;20041;-70
2022/05/30 03:19:36;;;;;;;5.22;1.65;;;;;;;19.29;56.44;100683.38;2076355;28;20501;-70
2022/05/30 03:20:58;;;;;;;7.35;1.77;;;;;;;19.33;56.57;100687.72;2082678;28;20045;-70
2022/05/30 03:22:21;;;;;;;8.68;1.48;;;;;;;19.34;56.51;100686.81;2078712;28;20057;-70
2022/05/30 03:24:07;;;;;;;9.68;2.75;;;;;;;19.37;56.16;100686.72;2074662;28;20150;-70
2022/05/30 03:25:32;;;;;;;12.70;2.00;;;;;;;19.41;56.04;100689.34;2079305;28;20103;-70
2022/05/30 03:26:57;;;;;;;14.43;2.85;;;;;;;19.44;56.10;100691.94;2070981;28;20048;-70
2022/05/30 03:28:18;;;;;;;9.25;1.77;;;;;;;19.48;56.22;100696.34;2082870;28;20053;-70
2022/05/30 03:29:41;;;;;;;12.18;2.15;;;;;;;19.53;56.22;100693.56;2087480;28;20123;-70
2022/05/30 03:31:07;;;;;;;6.95;1.90;;;;;;;19.57;56.36;100695.25;2071777;28;20046;-70
2022/05/30 03:32:31;;;;;;;9.35;2.17;;;;;;;19.59;56.56;100706.81;2084247;28;20063;-70
2022/05/30 03:33:56;;;;;;;9.57;1.90;;;;;;;19.69;56.39;100699.47;2079181;28;20490;-70
2022/05/30 03:35:18;;;;;;;6.88;2.83;;;;;;;19.77;56.55;100701.03;2067406;28;20048;-70
2022/05/30 03:36:48;;;;;;;6.35;2.42;;;;;;;19.84;56.54;100702.66;2076776;28;20042;-70
2022/05/30 03:38:37;;;;;;;6.55;1.65;;;;;;;19.96;56.56;100716.69;2087690;28;20099;-70
2022/05/30 03:40:26;;;;;;;341.63;32.03;;;;;;;20.06;56.28;100713.75;2079916;28;20059;-70
2022/05/30 03:42:13;;;;;;;507.13;36.88;;;;;;;20.17;55.84;100718.84;2077569;28;20041;-70
2022/05/30 03:44:00;;;;;;;73.75;7.03;;;;;;;20.28;55.53;100716.81;2083845;28;20420;-70
2022/05/30 03:45:22;;;;;;;29.40;3.13;;;;;;;20.39;55.55;100725.50;2085050;28;20297;-70
2022/05/30 03:46:44;;;;;;;;;;;;;;;20.48;55.47;100719.88;2076843;28;20053;-70
2022/05/30 03:48:10;;;;;;;9.95;2.13;;;;;;;20.60;55.21;100726.75;2076593;28;19952;-70
2022/05/30 03:49:34;;;;;;;6.72;1.90;;;;;;;20.73;55.06;100724.63;2069437;28;20041;-70
2022/05/30 03:50:59;;;;;;;10.65;2.00;;;;;;;20.84;54.73;100733.25;2066925;28;20038;-71
2022/05/30 03:52:20;;;;;;;8.10;1.60;;;;;;;20.94;54.78;100726.69;2074093;28;20041;-71
2022/05/30 03:53:44;;;;;;;11.57;2.10;;;;;;;21.07;54.73;100730.78;2074534;28;20049;-71
2022/05/30 03:55:11;;;;;;;8.93;1.65;;;;;;;21.20;54.46;100724.19;2079751;28;20052;-71
2022/05/30 03:56:34;;;;;;;9.73;2.00;;;;;;;21.31;54.54;100729.28;2073736;28;20053;-71
2022/05/30 03:57:56;;;;;;;6.25;1.77;;;;;;;21.43;54.32;100735.16;2074272;28;20147;-71
2022/05/30 03:59:18;;;;;;;14.38;2.22;;;;;;;21.58;54.33;100730.25;2086674;28;20057;-71
2022/05/30 04:00:43;;;;;;;11.05;1.52;;;;;;;21.71;54.14;100737.03;2075864;28;20646;-70
2022/05/30 04:02:06;;;;;;;5.88;1.40;;;;;;;21.86;53.81;100736.53;2078262;28;20041;-70
2022/05/30 04:03:29;;;;;;;13.75;1.95;;;;;;;22.02;53.60;100739.66;2078844;28;20728;-71
2022/05/30 04:04:52;;;;;;;10.85;1.58;;;;;;;22.18;53.40;100740.94;2074661;28;20041;-70
2022/05/30 04:06:15;;;;;;;5.70;1.38;;;;;;;22.33;53.28;100737.72;2076449;28;20079;-71
2022/05/30 04:07:38;;;;;;;9.10;1.85;;;;;;;22.44;52.88;100734.72;2070686;28;20525;-71
2022/05/30 04:09:24;;;;;;;7.28;1.48;;;;;;;22.61;52.56;100743.06;2081229;28;20527;-70
2022/05/30 04:11:05;;;;;;;8.25;1.33;;;;;;;22.78;52.20;100732.63;2081217;28;20057;-71
2022/05/30 04:13:01;;;;;;;12.67;1.60;;;;;;;23.00;51.89;100746.22;2064333;28;20093;-71
2022/05/30 04:14:59;;;;;;;6.22;1.48;;;;;;;23.23;51.64;100748.09;2068535;28;20332;-71
2022/05/30 04:16:25;;;;;;;8.85;1.45;;;;;;;23.39;51.29;100758.22;2073479;28;20073;-71
2022/05/30 04:17:50;;;;;;;10.02;2.15;;;;;;;23.59;51.05;100753.94;2079513;28;20496;-71
2022/05/30 04:19:13;;;;;;;7.97;1.95;;;;;;;23.76;50.69;100754.19;2070559;28;20276;-70
2022/05/30 04:20:37;;;;;;;9.35;1.88;;;;;;;23.95;50.40;100757.91;2083831;28;20135;-71
2022/05/30 04:22:00;;;;;;;7.28;1.42;;;;;;;24.09;49.80;100757.38;2093639;28;20374;-70
2022/05/30 04:23:29;;;;;;;10.23;1.73;;;;;;;24.22;49.64;100759.50;2071434;28;20466;-70
2022/05/30 04:24:56;;;;;;;9.35;2.60;;;;;;;24.36;49.10;100761.66;2077744;28;20045;-71
2022/05/30 04:26:19;;;;;;;6.18;1.50;;;;;;;24.50;48.82;100763.78;2065416;28;20046;-71
2022/05/30 04:27:47;;;;;;;16.67;2.65;;;;;;;24.69;48.46;100767.47;2073440;28;20108;-70
2022/05/30 04:29:10;;;;;;;7.50;1.55;;;;;;;24.92;47.94;100769.22;2070346;28;20571;-71
2022/05/30 04:30:44;;;;;;;10.18;1.50;;;;;;;25.18;47.18;100773.47;2079255;28;20053;-71
2022/05/30 04:32:06;;;;;;;10.63;1.70;;;;;;;25.38;46.57;100777.03;2084000;28;20029;-71
2022/05/30 04:33:31;;;;;;;9.57;1.40;;;;;;;25.60;45.76;100781.50;2079928;28;20136;-70
2022/05/30 04:34:53;;;;;;;9.60;1.58;;;;;;;25.84;45.12;100771.34;2083795;28;20052;-70
2022/05/30 04:36:18;;;;;;;9.23;1.73;;;;;;;26.10;44.70;100779.13;2077791;28;20710;-71
2022/05/30 04:37:47;;;;;;;10.88;1.95;;;;;;;26.38;44.33;100767.84;2079275;28;20152;-71
2022/05/30 04:39:31;;;;;;;9.45;1.60;;;;;;;26.39;43.77;100775.88;2073786;28;20041;-71
2022/05/30 04:41:05;;;;;;;10.80;1.63;;;;;;;26.17;43.87;100777.88;2079719;28;20049;-71
2022/05/30 04:42:47;;;;;;;6.80;1.50;;;;;;;25.88;44.42;100783.78;2089234;28;20620;-71
2022/05/30 04:44:28;;;;;;;9.82;1.80;;;;;;;25.61;44.88;100780.53;2088709;28;20045;-71
2022/05/30 04:46:15;;;;;;;9.52;2.00;;;;;;;25.41;45.54;100789.53;2086336;28;20763;-71
2022/05/30 04:47:40;;;;;;;9.15;1.77;;;;;;;25.26;45.90;100785.72;2085120;28;20040;-71
2022/05/30 04:49:03;;;;;;;9.23;2.42;;;;;;;25.17;46.24;100791.50;2070396;28;20057;-71
2022/05/30 04:50:26;;;;;;;11.55;1.92;;;;;;;25.09;46.50;100793.66;2072765;28;20674;-71
2022/05/30 04:51:49;;;;;;;11.07;2.00;;;;;;;25.05;46.19;100793.88;2075989;28;20044;-71
2022/05/30 04:53:13;;;;;;;9.57;2.17;;;;;;;25.02;46.40;100794.88;2071599;28;20092;-71
2022/05/30 04:55:18;;;;;;;11.23;2.03;;;;;;;25.10;46.50;100790.03;2067116;28;20097;-71
2022/05/30 04:56:50;;;;;;;11.50;3.38;;;;;;;25.51;46.06;100795.41;2065233;28;20054;-71
2022/05/30 04:58:20;;;;;;;8.68;2.63;;;;;;;25.94;44.93;100797.91;2054048;28;20415;-71
2022/05/30 04:59:46;;;;;;;8.55;1.48;;;;;;;25.90;45.27;100799.00;2062165;28;20054;-71
2022/05/30 05:01:09;;;;;;;12.07;2.22;;;;;;;25.78;45.38;100792.34;2072400;28;20065;-71
2022/05/30 05:02:32;;;;;;;10.15;2.22;;;;;;;25.69;45.85;100800.00;2080343;28;20068;-71
2022/05/30 05:03:56;;;;;;;11.80;1.83;;;;;;;25.62;46.25;100798.53;2072677;28;20050;-71
2022/05/30 05:05:19;;;;;;;11.18;1.42;;;;;;;25.57;46.36;100808.66;2080970;28;20063;-71
2022/05/30 05:06:45;;;;;;;6.95;1.70;;;;;;;25.52;46.65;100807.97;2084018;28;20069;-71
2022/05/30 05:08:29;;;;;;;16.80;2.08;;;;;;;25.44;46.78;100810.16;2077123;28;20041;-71
2022/05/30 05:10:39;;;;;;;18.38;3.60;;;;;;;25.45;46.93;100814.63;2071043;28;20398;-71
2022/05/30 05:12:35;;;;;;;9.68;1.80;;;;;;;25.44;47.22;100815.56;2055178;28;20567;-71
2022/05/30 05:14:20;;;;;;;11.88;2.03;;;;;;;25.47;47.58;100815.44;2080717;28;20151;-71
2022/05/30 05:16:06;;;;;;;11.85;1.67;;;;;;;25.51;47.71;100807.09;2088962;28;20134;-71
2022/05/30 05:17:30;;;;;;;13.77;2.00;;;;;;;25.61;48.43;100812.97;2077083;28;20187;-71
2022/05/30 05:18:53;;;;;;;10.70;2.65;;;;;;;25.77;48.76;100803.22;2075607;28;20438;-71
2022/05/30 05:20:16;;;;;;;12.52;3.03;;;;;;;26.27;48.60;100813.50;2069923;28;20042;-71
2022/05/30 05:21:39;;;;;;;11.85;2.33;;;;;;;27.11;47.82;100812.91;2075394;28;20473;-71
2022/05/30 05:23:02;;;;;;;15.60;3.30;;;;;;;28.13;46.37;100811.84;2067999;28;20056;-71
2022/05/30 05:24:45;;;;;;;15.57;2.90;;;;;;;29.21;44.63;100810.94;2083107;28;20144;-71
2022/05/30 05:26:13;;;;;;;11.73;2.33;;;;;;;29.59;44.11;100815.91;2081514;28;20041;-71
2022/05/30 05:27:59;;;;;;;13.38;2.72;;;;;;;29.94;43.96;100811.84;2091604;28;20069;-71
2022/05/30 05:29:21;;;;;;;11.10;2.40;;;;;;;30.26;43.53;100807.03;2077240;28;20051;-71
2022/05/30 05:30:43;;;;;;;12.68;2.35;;;;;;;30.51;43.33;100813.63;2076780;28;20160;-71
2022/05/30 05:32:09;;;;;;;12.63;2.78;;;;;;;30.66;43.40;100805.28;2073619;28;20045;-71
2022/05/30 05:33:32;;;;;;;13.13;2.92;;;;;;;30.91;42.96;100811.84;2074092;28;20087;-71
2022/05/30 05:34:54;;;;;;;12.27;2.67;;;;;;;31.18;42.73;100815.41;2081060;28;20048;-72
2022/05/30 05:36:20;;;;;;;10.63;2.22;;;;;;;31.44;42.33;100817.19;2075781;28;20041;-72
2022/05/30 05:37:43;;;;;;;11.57;3.17;;;;;;;31.58;41.96;100808.00;2075573;28;20155;-71
2022/05/30 05:39:35;;;;;;;11.77;2.60;;;;;;;31.74;41.43;100814.19;2100260;28;20416;-71
2022/05/30 05:41:09;;;;;;;10.77;2.42;;;;;;;32.05;40.80;100818.28;2082152;28;20065;-71
2022/05/30 05:42:52;;;;;;;11.55;2.92;;;;;;;32.17;40.66;100813.81;2085274;28;20152;-71
2022/05/30 05:44:17;;;;;;;11.48;2.10;;;;;;;32.22;40.34;100820.72;2075993;28;20636;-71
2022/05/30 05:45:44;;;;;;;8.98;2.33;;;;;;;32.26;40.00;100811.28;2078006;28;20060;-72
2022/05/30 05:47:07;;;;;;;13.32;3.35;;;;;;;32.19;40.17;100817.31;2083909;28;20049;-71
2022/05/30 05:48:30;;;;;;;14.32;2.60;;;;;;;31.48;40.76;100816.00;2074731;28;20065;-71
2022/05/30 05:49:53;;;;;;;12.93;2.90;;;;;;;31.05;41.99;100819.97;2083603;28;20064;-72
2022/05/30 05:51:14;;;;;;;10.38;2.50;;;;;;;31.33;41.29;100816.19;2077650;28;20053;-71
2022/05/30 05:52:37;;;;;;;13.38;2.58;;;;;;;31.60;40.74;100815.16;2076742;28;20509;-71
2022/05/30 05:54:09;;;;;;;10.60;2.75;;;;;;;31.13;41.31;100812.13;2074780;28;20106;-71
2022/05/30 05:55:32;;;;;;;9.60;2.53;;;;;;;30.93;42.24;100820.75;2075316;28;20045;-72
2022/05/30 05:56:56;;;;;;;14.27;3.20;;;;;;;30.61;42.67;100821.09;2072629;28;20096;-72
2022/05/30 05:58:25;;;;;;;14.00;2.75;;;;;;;29.99;43.37;100817.00;2068791;28;20091;-71
2022/05/30 05:59:47;;;;;;;15.30;2.70;;;;;;;29.37;44.42;100815.47;2082160;28;20075;-72
2022/05/30 06:01:12;;;;;;;13.32;3.28;;;;;;;29.02;45.48;100818.44;2075553;28;20049;-72
2022/05/30 06:02:35;;;;;;;12.77;3.13;;;;;;;29.57;44.65;100810.56;2084682;28;20037;-72
2022/05/30 06:04:00;;;;;;;12.02;2.53;;;;;;;30.48;43.18;100815.53;2078354;28;20037;-71
2022/05/30 06:05:41;;;;;;;17.60;3.47;;;;;;;31.22;41.40;100806.91;2088038;28;20167;-71
2022/05/30 06:07:23;;;;;;;;;;;;;;;31.66;40.41;100817.44;2086755;28;20056;-71
2022/05/30 06:09:11;;;;;;;13.80;2.47;;;;;;;32.16;39.76;100820.28;2086738;28;20033;-72
2022/05/30 06:12:25;;;;;;;16.67;3.35;;;;;;;32.68;38.48;100818.16;2078743;28;20045;-71
2022/05/30 06:13:48;;;;;;;9.52;2.10;;;;;;;32.88;38.13;100818.50;2077127;28;20072;-70
2022/05/30 06:15:12;;;;;;;13.13;2.35;;;;;;;33.02;37.76;100821.03;2090090;28;20567;-70
2022/05/30 06:16:44;;;;;;;13.45;2.42;;;;;;;33.02;37.58;100821.03;2076717;28;20049;-70
2022/05/30 06:18:11;;;;;;;7.20;1.70;;;;;;;32.99;37.79;100822.16;2067698;28;20041;-70
2022/05/30 06:19:34;;;;;;;8.30;2.17;;;;;;;32.95;38.25;100823.38;2074029;28;20069;-70
2022/05/30 06:20:57;;;;;;;12.60;2.40;;;;;;;33.09;37.68;100820.44;2084770;28;20531;-71
2022/05/30 06:22:20;;;;;;;9.48;2.30;;;;;;;33.15;37.58;100821.84;2085500;28;20045;-70
2022/05/30 06:23:44;;;;;;;10.88;2.35;;;;;;;33.28;37.12;100816.34;2077438;28;20141;-71
2022/05/30 06:25:26;;;;;;;14.00;2.50;;;;;;;33.34;36.99;100821.31;2087527;28;20086;-71
2022/05/30 06:27:20;;;;;;;8.60;2.40;;;;;;;33.41;36.91;100817.13;2056727;28;20054;-71
2022/05/30 06:28:48;;;;;;;8.00;1.85;;;;;;;33.46;37.13;100817.63;2071210;28;20058;-71
2022/05/30 06:30:11;;;;;;;12.35;2.35;;;;;;;33.54;37.00;100816.00;2069186;28;20503;-70
2022/05/30 06:31:34;;;;;;;13.27;2.63;;;;;;;33.52;36.99;100814.38;2071864;28;20048;-71
2022/05/30 06:32:57;;;;;;;14.65;2.58;;;;;;;33.46;37.23;100810.28;2083081;28;20131;-71
2022/05/30 06:34:37;;;;;;;12.50;1.85;;;;;;;33.47;37.08;100811.16;2086134;28;20128;-71
2022/05/30 06:36:00;;;;;;;11.32;2.08;;;;;;;33.44;37.05;100811.38;2079461;28;20054;-71
2022/05/30 06:37:23;;;;;;;12.18;2.25;;;;;;;33.44;36.86;100812.25;2085397;28;20136;-71
2022/05/30 06:38:47;;;;;;;12.57;1.98;;;;;;;33.27;37.79;100811.84;2077083;28;20048;-71
2022/05/30 06:40:17;;;;;;;11.95;2.35;;;;;;;33.14;38.25;100818.25;2069775;28;20077;-72
2022/05/30 06:41:52;;;;;;;12.48;2.60;;;;;;;33.06;37.98;100812.50;2078371;28;20398;-71
2022/05/30 06:43:15;;;;;;;11.07;1.98;;;;;;;33.10;38.07;100808.50;2070726;28;20058;-71
2022/05/30 06:45:02;;;;;;;11.00;2.78;;;;;;;33.09;38.07;100809.50;2061168;28;20483;-71
2022/05/30 06:46:43;;;;;;;9.52;2.33;;;;;;;33.05;37.77;100810.75;2079281;28;20045;-71
2022/05/30 06:48:26;;;;;;;14.43;2.75;;;;;;;33.03;37.72;100814.56;2064569;28;20509;-71
2022/05/30 06:50:08;;;;;;;12.20;2.13;;;;;;;33.05;37.36;100816.22;2081678;28;20059;-71
2022/05/30 06:51:33;;;;;;;8.10;1.52;;;;;;;33.27;37.29;100817.31;2072008;28;20488;-71
2022/05/30 06:52:56;;;;;;;9.80;2.80;;;;;;;33.33;37.55;100814.97;2070840;28;20190;-71
2022/05/30 06:54:20;;;;;;;9.15;1.92;;;;;;;33.35;37.68;100809.34;2074480;28;20099;-71
2022/05/30 06:55:43;;;;;;;11.20;2.38;;;;;;;33.46;37.38;100823.09;2074431;28;20057;-72
2022/05/30 06:58:46;;;;;;;15.80;3.80;;;;;;;33.60;37.38;100821.00;2078494;28;20046;-71